Classifiche di sempre
Migliori tempi personali validi di team tra tutti gli eventi e le stagioni. Ogni team compare una sola volta per divisione.
Cerca per nome e apri la pagina in cui è classificato questo record di divisione.
24,226 team in classifica
| Pos. | Pos. AG | Team | Nazionalità | Categoria età | TempoMiglior tempo | Distacco |
|---|---|---|---|---|---|---|
| 14976 | #2228 | Miguel Alves Pereira & Thomas SoeungFRA · M 35-39 · AG #2228 | FRA | M 35-39 | 1:13:53 | +25:22 |
| 14977 | #2229 | Alexander Baiker & Johannes StöhrGER · M 35-39 · AG #2229 | GER | M 35-39 | 1:13:54 | +25:23 |
| 14978 | #2517 | Chris Pye & Dom WhelanGBR · M 25-29 · AG #2517 | GBR | M 25-29 | 1:13:54 | +25:23 |
| 14979 | #6033 | Christian Martínez Tafalla & Andreu Gisbert QueralESP · M 30-34 · AG #6033 | ESP | M 30-34 | 1:13:54 | +25:23 |
| 14980 | #234 | Rémy Fizames & Laurent IngargiolaFRA · M 50-54 · AG #234 | FRA | M 50-54 | 1:13:54 | +25:23 |
| 14981 | #6034 | Riley Smith & Bronson ElsleyM 30-34 · AG #6034 | -- | M 30-34 | 1:13:54 | +25:23 |
| 14982 | #6036 | Martin Zinglersen & Christian BirkDEN · M 30-34 · AG #6036 | DEN | M 30-34 | 1:13:54 | +25:23 |
| 14983 | #6037 | Stefan Hendren & Harris MitchellGBR · M 30-34 · AG #6037 | GBR | M 30-34 | 1:13:54 | +25:23 |
| 14984 | #2518 | Andreas Duus & Marchel KronelDEN · M 25-29 · AG #2518 | DEN | M 25-29 | 1:13:54 | +25:23 |
| 14985 | #2519 | Monte Graham & Colin McCabeUSA · M 25-29 · AG #2519 | USA | M 25-29 | 1:13:54 | +25:23 |
| 14986 | #6038 | Lee Teajun & Alex MaronM 30-34 · AG #6038 | -- | M 30-34 | 1:13:54 | +25:23 |
| 14987 | #2520 | Boudewijn Groosman & Rens LotzeNED · M 25-29 · AG #2520 | NED | M 25-29 | 1:13:55 | +25:24 |
| 14988 | #1659 | Keelan Alberts & Spencer CottonUSA · M 40-44 · AG #1659 | USA | M 40-44 | 1:13:55 | +25:24 |
| 14989 | #2230 | Adam Wall & Antony WolleryGBR · M 35-39 · AG #2230 | GBR | M 35-39 | 1:13:55 | +25:24 |
| 14990 | #6039 | Canberk Babaoğlu & Derin ToparlakTUR · M 30-34 · AG #6039 | TUR | M 30-34 | 1:13:55 | +25:24 |
| 14991 | #6040 | Vitor Priori Lopes & Thorsten EgnerM 30-34 · AG #6040 | -- | M 30-34 | 1:13:55 | +25:24 |
| 14992 | #2231 | Eddy Simone & Justin GrzybowskiUSA · M 35-39 · AG #2231 | USA | M 35-39 | 1:13:55 | +25:24 |
| 14993 | #2232 | Francesc Miralles & Ruben Ramis EstelaESP · M 35-39 · AG #2232 | ESP | M 35-39 | 1:13:55 | +25:24 |
| 14994 | #898 | Gordon Adams & Vince DavieroUSA · M 16-24 · AG #898 | USA | M 16-24 | 1:13:55 | +25:24 |
| 14995 | #899 | Germano Luongo & Vittorio ArgoITA · M 16-24 · AG #899 | ITA | M 16-24 | 1:13:55 | +25:24 |
| 14996 | #6041 | Matt Grimshaw & Phod AdamsGBR · M 30-34 · AG #6041 | GBR | M 30-34 | 1:13:55 | +25:24 |
| 14997 | #2521 | Gregor Glancy & Dean AitkenGBR · M 25-29 · AG #2521 | GBR | M 25-29 | 1:13:55 | +25:24 |
| 14998 | #2233 | Callum Leavers & Ryan ElsamGBR · M 35-39 · AG #2233 | GBR | M 35-39 | 1:13:55 | +25:24 |
| 14999 | #2234 | Kai Dreher & Alexander BytschGER · M 35-39 · AG #2234 | GER | M 35-39 | 1:13:55 | +25:24 |
| 15000 | #2235 | Kyle Whitmire & Tyler PeavyUSA · M 35-39 · AG #2235 | USA | M 35-39 | 1:13:56 | +25:25 |
Pagina 600 di 970